Time;durP1;ratioP1;P1;durP2;ratioP2;P2;SDS_P1;SDS_P2;PMS_P1;PMS_P2;Temp;Humidity;BMP_temperature;BMP_pressure;BME280_temperature;BME280_humidity;BME280_pressure;Samples;Min_cycle;Max_cycle;Signal;HPM_P1;HPM_P2
2021/12/02 00:00:58;;;;;;;79.45;43.00;;;;;;;0.13;74.15;95055.31;5008253;28;20044;-79
2021/12/02 00:03:24;;;;;;;88.57;42.70;;;;;;;0.08;74.51;95057.50;5007695;28;20030;-78
2021/12/02 00:05:50;;;;;;;85.43;42.67;;;;;;;0.13;74.38;95057.13;5004248;28;20029;-79
2021/12/02 00:08:15;;;;;;;99.43;48.63;;;;;;;-0.24;75.59;95058.22;5009042;28;20051;-79
2021/12/02 00:10:41;;;;;;;89.75;46.45;;;;;;;-0.17;75.25;95046.25;5009145;28;20030;-78
2021/12/02 00:13:07;;;;;;;84.63;43.83;;;;;;;-0.05;73.96;95057.63;5007673;28;20037;-79
2021/12/02 00:15:38;;;;;;;94.35;47.05;;;;;;;-0.05;73.73;95049.72;5009231;28;20033;-79
2021/12/02 00:24:05;;;;;;;97.88;48.33;;;;;;;-0.01;74.96;95072.25;5009098;28;20091;-79
2021/12/02 00:26:32;;;;;;;92.35;46.63;;;;;;;0.06;74.42;95056.78;5007502;28;20049;-77
2021/12/02 00:28:59;;;;;;;105.50;52.28;;;;;;;0.04;74.14;95070.09;5003985;28;20026;-79
2021/12/02 00:31:30;;;;;;;104.63;50.92;;;;;;;0.02;75.04;95066.72;4988265;28;20033;-79
2021/12/02 00:33:57;;;;;;;112.38;55.65;;;;;;;-0.06;74.74;95061.22;4987229;28;20066;-79
2021/12/02 00:36:24;;;;;;;108.32;51.58;;;;;;;0.01;74.90;95064.22;5001791;28;20042;-79
2021/12/02 00:38:51;;;;;;;114.95;51.67;;;;;;;0.00;74.91;95071.31;5008257;28;20053;-79
2021/12/02 00:41:18;;;;;;;111.30;52.80;;;;;;;0.01;74.84;95066.84;5007375;28;20105;-79
2021/12/02 00:43:47;;;;;;;102.18;50.65;;;;;;;0.02;74.49;95069.34;5008048;28;20517;-79
2021/12/02 00:46:15;;;;;;;111.90;53.88;;;;;;;-0.06;74.54;95053.28;4990782;28;20477;-80
2021/12/02 00:48:42;;;;;;;129.13;54.22;;;;;;;-0.06;73.99;95066.47;5007179;28;20033;-80
2021/12/02 00:51:07;;;;;;;138.02;59.00;;;;;;;-0.14;73.15;95075.84;5006511;28;20470;-78
2021/12/02 00:53:34;;;;;;;138.18;63.13;;;;;;;-0.06;72.41;95071.75;4990316;28;20030;-78
2021/12/02 00:56:03;;;;;;;142.60;64.40;;;;;;;-0.13;72.82;95061.69;5006411;28;20030;-78
2021/12/02 00:58:30;;;;;;;141.48;66.35;;;;;;;-0.19;73.86;95079.78;5006746;28;20532;-77
2021/12/02 01:00:55;;;;;;;140.73;68.25;;;;;;;-0.23;74.40;95091.53;4990338;28;20458;-78
2021/12/02 01:03:21;;;;;;;131.25;64.35;;;;;;;-0.17;72.87;95078.72;4990507;28;20037;-79
2021/12/02 01:05:46;;;;;;;116.97;56.45;;;;;;;-0.20;75.11;95078.97;5005672;28;20045;-78
2021/12/02 01:08:12;;;;;;;104.78;51.20;;;;;;;-0.21;76.12;95069.34;5007859;28;20034;-79
2021/12/02 01:10:39;;;;;;;102.60;50.80;;;;;;;-0.20;75.90;95078.97;5007510;28;20029;-78
2021/12/02 01:13:05;;;;;;;96.68;47.70;;;;;;;-0.16;75.72;95080.38;5007134;28;20042;-78
2021/12/02 01:15:30;;;;;;;98.53;48.75;;;;;;;-0.21;75.85;95082.53;5005298;28;20484;-79
2021/12/02 01:17:56;;;;;;;102.20;48.35;;;;;;;-0.19;74.75;95087.69;5007592;28;20084;-79
2021/12/02 01:20:21;;;;;;;95.40;48.72;;;;;;;-0.29;76.52;95084.94;5006577;28;20029;-79
2021/12/02 01:22:47;;;;;;;92.70;49.30;;;;;;;-0.31;75.74;95079.81;5007907;28;20040;-79
2021/12/02 01:25:13;;;;;;;91.05;48.03;;;;;;;-0.31;76.04;95089.50;5006286;28;20041;-79
2021/12/02 01:27:39;;;;;;;97.45;47.63;;;;;;;-0.30;77.53;95078.84;4990514;28;20026;-78
2021/12/02 01:30:05;;;;;;;88.22;44.33;;;;;;;-0.18;75.48;95079.66;4989805;28;20472;-78
2021/12/02 01:32:33;;;;;;;94.30;45.85;;;;;;;-0.33;75.28;95070.31;5006469;28;20044;-78
2021/12/02 01:35:01;;;;;;;90.90;44.92;;;;;;;-0.24;75.71;95068.78;5005507;28;20034;-79
2021/12/02 01:37:26;;;;;;;90.60;45.42;;;;;;;-0.36;75.40;95065.28;5006404;28;20034;-78
2021/12/02 01:39:52;;;;;;;91.60;45.97;;;;;;;-0.31;75.46;95063.13;4990054;28;20030;-78
2021/12/02 01:42:24;;;;;;;89.32;46.10;;;;;;;-0.23;75.56;95068.66;5005679;28;20088;-78
2021/12/02 01:44:51;;;;;;;89.55;46.25;;;;;;;-0.26;76.75;95061.00;5005929;28;20062;-79
2021/12/02 01:47:17;;;;;;;83.53;43.70;;;;;;;-0.19;75.98;95045.50;5006642;28;20052;-79
2021/12/02 01:49:43;;;;;;;80.78;44.63;;;;;;;-0.11;76.28;95044.94;5006381;28;20022;-79
2021/12/02 01:52:12;;;;;;;101.63;52.65;;;;;;;0.14;74.80;95042.97;4989180;28;20041;-78
2021/12/02 01:54:44;;;;;;;114.53;62.95;;;;;;;0.13;74.65;95043.94;5006023;28;20511;-79
2021/12/02 01:57:31;;;;;;;120.70;64.13;;;;;;;-0.27;76.59;95035.56;5007225;28;20048;-79
2021/12/02 02:00:07;;;;;;;115.35;56.78;;;;;;;-0.60;77.14;95032.81;5007048;28;20060;-79
2021/12/02 02:02:35;;;;;;;108.22;55.00;;;;;;;-0.54;77.02;95040.25;5005970;28;20563;-78
2021/12/02 02:05:01;;;;;;;78.13;42.00;;;;;;;-0.39;74.36;95035.56;5004876;28;20034;-77
2021/12/02 02:07:26;;;;;;;94.55;45.08;;;;;;;-0.44;74.28;95040.38;4989434;28;20044;-78
2021/12/02 02:09:52;;;;;;;94.20;45.90;;;;;;;-0.56;74.16;95038.66;5006944;28;20030;-79
2021/12/02 02:12:19;;;;;;;75.80;42.33;;;;;;;-0.58;74.15;95043.25;5006858;28;20022;-77
2021/12/02 02:14:45;;;;;;;88.70;43.72;;;;;;;-0.53;73.83;95047.19;5005793;28;20058;-79
2021/12/02 02:17:25;;;;;;;82.55;42.90;;;;;;;-0.47;72.85;95043.25;5005200;28;20040;-79
2021/12/02 02:19:51;;;;;;;88.45;44.10;;;;;;;-0.49;73.17;95029.34;5005744;28;20021;-79
2021/12/02 02:22:21;;;;;;;93.63;45.53;;;;;;;-0.72;74.08;95042.47;4988663;28;20045;-80
2021/12/02 02:24:47;;;;;;;88.03;45.25;;;;;;;-0.83;75.16;95047.72;5006972;28;20030;-78
2021/12/02 02:27:12;;;;;;;88.25;45.08;;;;;;;-0.82;75.07;95038.88;5006360;28;20519;-79
2021/12/02 02:29:37;;;;;;;87.22;46.38;;;;;;;-0.87;75.68;95028.69;4989078;28;20026;-78
2021/12/02 02:32:03;;;;;;;88.35;43.83;;;;;;;-0.92;77.52;95031.66;5006878;28;20030;-79
2021/12/02 02:34:29;;;;;;;84.93;43.00;;;;;;;-0.88;76.66;95014.69;5005918;28;20018;-80
2021/12/02 02:36:56;;;;;;;76.70;39.95;;;;;;;-0.77;76.36;95016.50;5007014;28;20413;-78
2021/12/02 02:39:22;;;;;;;81.65;41.60;;;;;;;-0.73;75.32;95035.56;5004985;28;20049;-80
2021/12/02 02:41:54;;;;;;;69.60;37.25;;;;;;;-0.59;72.79;95038.91;5006599;28;20057;-79
2021/12/02 02:44:19;;;;;;;78.13;40.42;;;;;;;-0.61;73.17;95041.66;5006238;28;20104;-78
2021/12/02 02:46:45;;;;;;;73.80;37.03;;;;;;;-0.77;73.20;95036.72;4988994;28;20054;-79
2021/12/02 02:49:11;;;;;;;68.43;33.53;;;;;;;-0.79;73.65;95046.56;5007035;28;20018;-79
2021/12/02 02:51:37;;;;;;;62.10;31.75;;;;;;;-0.82;74.12;95050.25;5005118;28;20623;-80
2021/12/02 02:54:05;;;;;;;60.25;32.58;;;;;;;-0.91;74.30;95050.94;5005575;28;20401;-79
2021/12/02 02:56:32;;;;;;;65.93;33.30;;;;;;;-0.98;74.10;95050.56;4972319;28;20436;-79
2021/12/02 02:59:19;;;;;;;53.90;30.70;;;;;;;-0.98;73.06;95041.84;5006983;28;20040;-78
2021/12/02 03:01:52;;;;;;;63.50;30.73;;;;;;;-1.06;73.38;95034.50;5006030;28;20026;-78
2021/12/02 03:07:37;;;;;;;45.20;22.90;;;;;;;-1.08;73.06;95034.59;5006945;28;20034;-79
2021/12/02 03:18:16;;;;;;;45.53;25.17;;;;;;;-1.21;74.07;95021.53;5010333;28;20065;-78
2021/12/02 03:20:41;;;;;;;44.80;25.02;;;;;;;-1.15;74.37;95025.50;5010123;28;20053;-78
2021/12/02 03:23:07;;;;;;;52.17;28.50;;;;;;;-1.21;74.71;95018.91;5009720;28;20026;-79
2021/12/02 03:25:33;;;;;;;57.75;30.42;;;;;;;-1.33;75.42;95018.03;5010219;28;20420;-80
2021/12/02 03:27:58;;;;;;;52.58;29.88;;;;;;;-1.34;75.72;95010.25;5008934;28;20045;-78
2021/12/02 03:30:24;;;;;;;55.28;31.00;;;;;;;-1.30;75.50;95011.69;5010182;28;20025;-78
2021/12/02 03:32:49;;;;;;;68.13;32.90;;;;;;;-1.18;75.95;95010.81;5009432;28;20516;-79
2021/12/02 03:35:15;;;;;;;59.88;32.63;;;;;;;-1.17;75.21;94998.47;5008514;28;20080;-78
2021/12/02 03:37:40;;;;;;;59.58;32.35;;;;;;;-1.08;73.96;95010.09;5009791;28;20026;-78
2021/12/02 03:40:08;;;;;;;61.35;29.77;;;;;;;-1.06;72.01;95018.69;5009826;28;20037;-79
2021/12/02 03:42:33;;;;;;;56.33;30.83;;;;;;;-1.18;70.50;95023.97;5010201;28;20483;-79
2021/12/02 03:44:59;;;;;;;61.60;31.15;;;;;;;-1.30;70.59;95020.44;5010009;28;20026;-80
2021/12/02 03:47:24;;;;;;;62.70;32.88;;;;;;;-1.36;71.59;95028.78;5009126;28;20096;-80
2021/12/02 03:49:50;;;;;;;55.83;31.00;;;;;;;-1.75;71.44;95021.06;5010072;28;20026;-80
2021/12/02 03:52:15;;;;;;;56.00;27.70;;;;;;;-1.77;72.60;95026.44;5010010;28;20034;-81
2021/12/02 03:54:40;;;;;;;53.10;28.08;;;;;;;-1.73;73.09;95029.69;5009119;28;20084;-82
2021/12/02 03:57:06;;;;;;;54.13;28.00;;;;;;;-1.91;74.27;95019.56;5010227;28;20084;-81
2021/12/02 03:59:32;;;;;;;52.30;28.75;;;;;;;-1.75;73.97;95019.28;5010292;28;20034;-80
2021/12/02 04:01:58;;;;;;;53.58;27.13;;;;;;;-1.74;74.31;95022.72;5009506;28;20026;-81
2021/12/02 04:04:23;;;;;;;55.03;30.23;;;;;;;-1.79;74.42;95017.81;5010296;28;20068;-81
2021/12/02 04:06:49;;;;;;;50.10;27.10;;;;;;;-1.71;74.94;95026.94;5009694;28;20405;-81
2021/12/02 04:09:19;;;;;;;49.25;25.73;;;;;;;-1.53;73.68;95003.75;4992239;28;20094;-80
2021/12/02 04:11:54;;;;;;;46.70;24.73;;;;;;;-1.56;73.44;95011.81;5009589;28;20050;-80
2021/12/02 04:17:01;;;;;;;44.22;24.55;;;;;;;-1.56;73.34;94989.00;5008756;28;20026;-82
2021/12/02 04:19:27;;;;;;;45.03;25.65;;;;;;;-1.58;73.44;95000.59;5007605;28;20034;-81
2021/12/02 04:21:53;;;;;;;51.60;25.75;;;;;;;-1.63;73.70;94999.13;5010190;28;20477;-81
2021/12/02 04:24:19;;;;;;;55.10;26.45;;;;;;;-1.65;73.86;95008.09;5009587;28;20046;-80
2021/12/02 04:26:45;;;;;;;49.55;26.73;;;;;;;-1.79;74.33;95001.22;4975881;28;20181;-80
2021/12/02 04:29:11;;;;;;;49.85;25.38;;;;;;;-2.00;75.22;94991.31;5008522;28;20681;-81
2021/12/02 04:31:37;;;;;;;49.38;26.80;;;;;;;-1.94;75.09;95003.16;5009289;28;20072;-81
2021/12/02 04:34:02;;;;;;;58.83;28.23;;;;;;;-1.88;74.95;95000.09;5008308;28;20032;-80
2021/12/02 04:36:27;;;;;;;57.83;27.60;;;;;;;-1.99;75.77;94996.47;5009148;28;20571;-79
2021/12/02 04:38:53;;;;;;;60.03;29.08;;;;;;;-1.93;75.66;95000.41;5008982;28;20049;-81
2021/12/02 04:41:18;;;;;;;61.72;30.42;;;;;;;-1.85;75.02;94999.03;5009053;28;20025;-80
2021/12/02 04:43:44;;;;;;;64.57;33.13;;;;;;;-1.86;75.15;94995.56;5009366;28;20026;-82
2021/12/02 04:46:09;;;;;;;68.03;32.20;;;;;;;-1.76;74.96;95004.44;5007936;28;20045;-81
2021/12/02 04:48:35;;;;;;;57.53;29.20;;;;;;;-1.68;74.89;94996.03;5009166;28;20026;-80
2021/12/02 04:51:00;;;;;;;55.20;28.67;;;;;;;-1.66;74.54;94990.66;5007355;28;20501;-80
2021/12/02 04:53:26;;;;;;;55.03;27.73;;;;;;;-1.68;73.48;94984.66;5007324;28;20022;-80
2021/12/02 04:55:51;;;;;;;68.50;32.53;;;;;;;-1.64;73.44;94997.47;5007409;28;20041;-81
2021/12/02 04:58:17;;;;;;;81.65;33.72;;;;;;;-1.56;71.99;94989.00;5007967;28;20061;-81
2021/12/02 05:00:42;;;;;;;73.00;33.75;;;;;;;-1.69;72.54;94989.06;5007632;28;20504;-80
2021/12/02 05:03:07;;;;;;;73.78;33.35;;;;;;;-1.81;71.82;94984.72;5008258;28;20029;-81
2021/12/02 05:05:33;;;;;;;63.85;31.23;;;;;;;-1.83;72.61;94981.34;5008419;28;20026;-82
2021/12/02 05:08:00;;;;;;;67.53;32.83;;;;;;;-1.99;72.60;94987.72;5008133;28;20095;-81
2021/12/02 05:10:26;;;;;;;182.27;93.28;;;;;;;-2.08;73.96;94983.13;5008298;28;20062;-80
2021/12/02 05:12:51;;;;;;;73.63;39.08;;;;;;;-2.00;73.94;94978.16;5007297;28;20145;-80
2021/12/02 05:15:17;;;;;;;69.22;31.85;;;;;;;-1.89;73.41;94977.38;5006415;28;20037;-81
2021/12/02 05:17:42;;;;;;;64.00;29.13;;;;;;;-1.86;72.66;94982.41;4992207;28;20032;-82
2021/12/02 05:20:09;;;;;;;61.13;29.58;;;;;;;-1.87;72.61;94983.38;5007262;28;20469;-81
2021/12/02 05:22:34;;;;;;;65.47;29.67;;;;;;;-2.39;74.64;94981.75;5006935;28;20033;-81
2021/12/02 05:24:59;;;;;;;56.78;30.80;;;;;;;-2.45;75.68;94983.97;5007299;28;20033;-82
2021/12/02 05:27:25;;;;;;;56.13;27.42;;;;;;;-2.40;75.29;94979.22;5008260;28;20030;-80
2021/12/02 05:29:50;;;;;;;52.08;26.77;;;;;;;-2.44;74.95;94970.72;5008330;28;20033;-81
2021/12/02 05:32:16;;;;;;;49.22;26.05;;;;;;;-2.37;74.58;94958.81;5007900;28;20041;-80
2021/12/02 05:34:41;;;;;;;50.35;26.77;;;;;;;-2.31;74.97;94967.22;4990417;28;20513;-80
2021/12/02 05:37:07;;;;;;;45.55;25.48;;;;;;;-2.23;75.15;94959.63;5005855;28;20053;-79
2021/12/02 05:39:32;;;;;;;54.72;31.08;;;;;;;-2.25;74.70;94962.38;5007173;28;20109;-79
2021/12/02 05:41:58;;;;;;;51.63;27.63;;;;;;;-2.23;74.96;94967.50;5006912;28;20076;-80
2021/12/02 05:44:23;;;;;;;53.30;25.33;;;;;;;-2.14;75.36;94966.84;5005373;28;20046;-78
2021/12/02 05:46:49;;;;;;;55.10;26.67;;;;;;;-2.21;75.21;94965.63;4992437;28;20045;-78
2021/12/02 05:49:15;;;;;;;51.22;25.73;;;;;;;-2.21;75.51;94973.50;5004602;28;20037;-73
2021/12/02 05:51:42;;;;;;;53.05;28.80;;;;;;;-2.13;75.12;94981.66;5003125;28;20033;-72
2021/12/02 05:54:07;;;;;;;45.40;25.65;;;;;;;-2.06;74.57;94976.00;5006075;28;20408;-74
2021/12/02 05:56:33;;;;;;;51.35;25.40;;;;;;;-1.94;76.49;94979.50;5007413;28;20025;-73
2021/12/02 05:58:58;;;;;;;57.10;29.77;;;;;;;-1.85;77.43;94972.75;5005640;28;20050;-74
2021/12/02 06:01:24;;;;;;;66.10;30.45;;;;;;;-1.69;75.71;94978.53;5005220;28;20038;-74
2021/12/02 06:03:49;;;;;;;60.35;29.45;;;;;;;-1.63;75.39;94975.47;5005481;28;20019;-76
2021/12/02 06:06:16;;;;;;;55.40;30.90;;;;;;;-1.52;75.14;94981.72;5006644;28;20025;-76
2021/12/02 06:08:42;;;;;;;66.60;31.55;;;;;;;-1.34;74.65;94982.16;4991627;28;20185;-76
2021/12/02 06:11:07;;;;;;;58.75;30.60;;;;;;;-1.26;73.81;94974.50;5005457;28;20038;-76
2021/12/02 06:13:33;;;;;;;60.92;30.02;;;;;;;-1.09;73.79;94974.19;4997438;28;20030;-76
2021/12/02 06:15:58;;;;;;;60.38;33.67;;;;;;;-0.98;73.50;94970.75;4999930;28;20038;-77
2021/12/02 06:18:23;;;;;;;62.88;31.63;;;;;;;-0.92;72.45;94976.38;5006978;28;20041;-74
2021/12/02 06:20:53;;;;;;;62.47;31.13;;;;;;;-0.76;71.22;94972.59;4986760;28;20034;-75
2021/12/02 06:23:19;;;;;;;57.08;30.08;;;;;;;-0.72;70.91;94984.53;4989461;28;20138;-74
2021/12/02 06:25:44;;;;;;;66.43;35.90;;;;;;;-0.78;70.75;94979.75;4988582;28;20102;-76
2021/12/02 06:28:10;;;;;;;64.90;33.60;;;;;;;-0.77;71.09;94981.41;5005438;28;20025;-75
2021/12/02 06:30:35;;;;;;;71.43;36.53;;;;;;;-0.60;70.46;94989.81;4988400;28;20041;-75
2021/12/02 06:33:01;;;;;;;64.40;34.47;;;;;;;-0.57;70.48;94981.69;5006537;28;20025;-77
2021/12/02 06:35:26;;;;;;;64.97;33.35;;;;;;;-0.55;70.61;94993.75;5005339;28;20034;-74
2021/12/02 06:37:52;;;;;;;73.93;33.67;;;;;;;-0.51;69.71;94994.38;5004689;28;20113;-74
2021/12/02 06:40:18;;;;;;;86.07;41.40;;;;;;;-0.50;69.98;94986.34;4988926;28;20026;-75
2021/12/02 06:42:43;;;;;;;89.68;44.00;;;;;;;-0.39;68.75;94982.88;5004610;28;20091;-75
2021/12/02 06:45:09;;;;;;;80.70;40.38;;;;;;;-0.26;68.96;94981.91;4988740;28;20030;-74
2021/12/02 06:47:39;;;;;;;86.53;41.72;;;;;;;-0.26;69.03;94979.28;5004523;28;20092;-75
2021/12/02 06:50:06;;;;;;;76.05;39.30;;;;;;;-0.15;68.99;94974.00;5006147;28;20038;-74
2021/12/02 06:52:32;;;;;;;78.40;41.25;;;;;;;-0.06;68.50;94982.97;5009880;28;20052;-74
2021/12/02 06:54:57;;;;;;;81.35;41.08;;;;;;;-0.01;69.02;94987.84;5009847;28;20084;-74
2021/12/02 06:57:23;;;;;;;78.03;40.53;;;;;;;0.13;68.88;94978.00;5009087;28;20105;-75
2021/12/02 06:59:48;;;;;;;85.57;39.50;;;;;;;0.28;68.36;94984.69;4992101;28;20436;-75
2021/12/02 07:02:14;;;;;;;84.55;41.70;;;;;;;0.29;67.59;94975.78;5009001;28;20048;-74
2021/12/02 07:04:39;;;;;;;88.38;42.63;;;;;;;0.36;68.38;94984.91;5008170;28;20037;-75
2021/12/02 07:07:04;;;;;;;74.50;39.65;;;;;;;0.41;67.57;94979.25;5008970;28;20084;-76
2021/12/02 07:09:30;;;;;;;72.72;38.38;;;;;;;0.48;68.23;94980.41;5008743;28;20029;-74
2021/12/02 07:11:55;;;;;;;75.90;39.33;;;;;;;0.57;67.77;94980.63;5008709;28;20022;-73
2021/12/02 07:14:22;;;;;;;76.90;39.13;;;;;;;0.62;68.62;94970.53;5010321;28;20022;-76
2021/12/02 07:16:48;;;;;;;75.95;38.35;;;;;;;0.72;68.52;94968.81;4992016;28;21024;-75
2021/12/02 07:19:14;;;;;;;70.88;39.13;;;;;;;0.84;68.09;94974.00;5009027;28;20026;-74
2021/12/02 07:21:40;;;;;;;82.93;43.53;;;;;;;1.11;67.58;94972.66;4991745;28;20030;-75
2021/12/02 07:24:06;;;;;;;85.13;43.50;;;;;;;1.06;67.33;94970.44;4992342;28;20062;-74
2021/12/02 07:26:36;;;;;;;78.57;43.85;;;;;;;1.29;66.73;94970.25;5008016;28;20045;-74
2021/12/02 07:29:01;;;;;;;70.15;40.65;;;;;;;1.42;67.47;94971.88;4991947;28;20034;-73
2021/12/02 07:31:29;;;;;;;77.82;40.33;;;;;;;1.51;66.38;94964.94;5008525;28;20120;-75
2021/12/02 07:33:54;;;;;;;62.80;37.10;;;;;;;1.43;67.44;94963.81;4975103;28;20037;-74
2021/12/02 07:36:20;;;;;;;55.53;32.47;;;;;;;1.55;66.80;94953.97;4992261;28;20030;-73
2021/12/02 07:38:45;;;;;;;58.17;32.88;;;;;;;1.72;66.70;94955.16;5008873;28;20385;-74
2021/12/02 07:41:14;;;;;;;55.42;32.90;;;;;;;1.78;67.14;94964.34;4975663;28;20432;-74
2021/12/02 07:43:39;;;;;;;59.45;33.88;;;;;;;1.70;67.67;94962.38;5008710;28;20026;-75
2021/12/02 07:46:05;;;;;;;62.60;33.80;;;;;;;1.60;68.52;94964.97;4991224;28;20141;-74
2021/12/02 07:48:31;;;;;;;61.47;35.78;;;;;;;1.72;67.95;94960.44;5007539;28;20412;-74
2021/12/02 07:51:00;;;;;;;65.10;35.83;;;;;;;1.76;68.46;94963.63;5008954;28;20529;-74
2021/12/02 07:53:27;;;;;;;62.05;35.72;;;;;;;1.84;67.87;94961.16;5009698;28;20551;-76
2021/12/02 07:55:52;;;;;;;63.47;38.38;;;;;;;1.87;68.63;94977.75;5008743;28;20575;-75
2021/12/02 07:58:18;;;;;;;65.03;38.78;;;;;;;1.87;68.74;94978.56;5008120;28;20113;-74
2021/12/02 08:00:43;;;;;;;70.35;37.60;;;;;;;2.12;68.03;94973.75;4974616;28;20030;-75
2021/12/02 08:03:10;;;;;;;64.72;37.38;;;;;;;2.22;68.44;94973.78;4990583;28;20029;-77
2021/12/02 08:05:35;;;;;;;68.40;39.80;;;;;;;2.34;68.26;94971.84;4975089;28;20029;-75
2021/12/02 08:08:01;;;;;;;71.88;40.88;;;;;;;2.45;67.78;94984.13;5008783;28;20112;-76
2021/12/02 08:10:28;;;;;;;78.45;42.97;;;;;;;2.62;67.78;94973.81;4991529;28;20034;-74
2021/12/02 08:12:53;;;;;;;73.95;42.33;;;;;;;2.79;67.03;94978.41;5008383;28;20474;-74
2021/12/02 08:15:23;;;;;;;70.32;41.40;;;;;;;2.87;66.98;94972.41;5008815;28;20021;-75
2021/12/02 08:17:48;;;;;;;74.78;43.70;;;;;;;2.93;66.80;94971.03;4974308;28;20056;-77
2021/12/02 08:20:14;;;;;;;74.30;43.85;;;;;;;2.99;67.21;94966.97;5007577;28;20038;-75
2021/12/02 08:22:40;;;;;;;78.95;46.35;;;;;;;3.15;66.81;94969.88;4990940;28;20493;-81
2021/12/02 08:25:05;;;;;;;74.57;45.00;;;;;;;3.31;65.84;94977.25;5007623;28;20450;-81
2021/12/02 08:27:31;;;;;;;81.95;47.10;;;;;;;3.44;65.28;94968.97;5007535;28;20037;-80
2021/12/02 08:29:56;;;;;;;99.72;50.25;;;;;;;3.47;66.12;94965.19;5007363;28;20053;-81
2021/12/02 08:32:22;;;;;;;107.65;55.72;;;;;;;3.55;65.69;94960.00;5008249;28;20049;-79
2021/12/02 08:34:47;;;;;;;82.50;43.28;;;;;;;3.65;65.37;94964.44;5008213;28;20041;-81
2021/12/02 08:37:13;;;;;;;63.67;36.90;;;;;;;3.66;65.10;94958.16;5009197;28;20022;-81
2021/12/02 08:39:41;;;;;;;60.92;35.47;;;;;;;3.69;65.29;94965.81;5007264;28;20120;-80
2021/12/02 08:42:08;;;;;;;53.47;31.25;;;;;;;3.75;64.55;94959.09;5007626;28;20026;-80
2021/12/02 08:44:37;;;;;;;51.58;30.05;;;;;;;3.79;64.07;94956.00;4991179;28;20061;-82
2021/12/02 08:47:04;;;;;;;55.70;30.80;;;;;;;3.80;64.60;94952.38;5008116;28;20026;-83
2021/12/02 08:49:29;;;;;;;48.67;30.02;;;;;;;3.75;64.84;94944.00;4991412;28;20042;-80
2021/12/02 08:51:55;;;;;;;52.22;29.52;;;;;;;3.76;65.20;94945.69;5006806;28;20118;-80
2021/12/02 08:54:20;;;;;;;46.28;27.55;;;;;;;3.69;64.91;94949.91;5008778;28;20030;-82
2021/12/02 08:56:46;;;;;;;46.05;27.80;;;;;;;3.85;64.85;94953.75;4990458;28;20026;-80
2021/12/02 08:59:11;;;;;;;39.88;24.70;;;;;;;3.98;64.64;94950.75;5008421;28;20032;-79
2021/12/02 09:01:37;;;;;;;37.05;23.90;;;;;;;3.98;64.11;94948.94;5008004;28;20030;-80
2021/12/02 09:04:03;;;;;;;41.92;25.05;;;;;;;3.94;64.47;94934.28;4974166;28;20029;-81
2021/12/02 09:06:30;;;;;;;40.78;23.40;;;;;;;3.98;65.24;94927.72;5007277;28;20026;-81
2021/12/02 09:08:57;;;;;;;36.70;21.02;;;;;;;4.12;64.36;94922.84;5009795;28;20029;-81
2021/12/02 09:11:22;;;;;;;33.65;20.05;;;;;;;4.22;64.27;94918.34;5008715;28;20160;-80
2021/12/02 09:13:48;;;;;;;31.63;20.25;;;;;;;4.31;63.26;94909.47;4989925;28;20093;-80
2021/12/02 09:16:14;;;;;;;33.17;20.60;;;;;;;4.23;64.43;94914.69;5006541;28;20026;-81
2021/12/02 09:18:39;;;;;;;30.10;18.02;;;;;;;4.20;64.23;94917.66;4989951;28;20476;-80
2021/12/02 09:21:05;;;;;;;27.40;18.98;;;;;;;4.26;63.55;94902.91;4990088;28;20034;-80
2021/12/02 09:23:30;;;;;;;31.70;18.45;;;;;;;4.29;63.50;94906.13;4974201;28;20037;-80
2021/12/02 09:25:56;;;;;;;27.45;18.27;;;;;;;4.20;62.85;94907.03;5006800;28;20058;-82
2021/12/02 09:28:21;;;;;;;32.03;20.42;;;;;;;4.20;62.98;94899.06;5008165;28;20464;-81
2021/12/02 09:30:46;;;;;;;37.63;20.42;;;;;;;4.07;63.12;94897.63;4974074;28;20040;-82
2021/12/02 09:33:12;;;;;;;37.95;20.77;;;;;;;4.19;62.37;94898.22;5006806;28;20030;-81
2021/12/02 09:35:37;;;;;;;37.55;20.40;;;;;;;4.18;62.78;94888.59;5006231;28;20084;-81
2021/12/02 09:38:05;;;;;;;34.60;19.27;;;;;;;4.19;62.54;94884.13;5006790;28;20113;-80
2021/12/02 09:40:31;;;;;;;30.13;17.67;;;;;;;4.23;62.70;94890.78;5006248;28;20489;-83
2021/12/02 09:42:56;;;;;;;25.90;16.08;;;;;;;4.28;63.30;94890.34;4974365;28;20036;-83
2021/12/02 09:45:22;;;;;;;26.52;15.43;;;;;;;4.35;61.19;94894.06;5006366;28;20117;-81
2021/12/02 09:47:50;;;;;;;25.85;14.90;;;;;;;4.27;61.32;94878.88;5006078;28;20038;-80
2021/12/02 09:50:21;;;;;;;23.40;15.52;;;;;;;4.51;61.58;94879.25;5007932;28;20026;-80
2021/12/02 09:52:46;;;;;;;23.25;15.07;;;;;;;4.59;61.09;94868.72;5006066;28;20033;-80
2021/12/02 09:55:25;;;;;;;31.08;16.02;;;;;;;4.66;61.29;94871.59;5006174;28;20107;-82
2021/12/02 09:57:58;;;;;;;28.58;14.23;;;;;;;4.73;60.18;94866.47;4991690;28;20030;-84
2021/12/02 10:00:37;;;;;;;;;;;;;;;4.84;61.05;94874.19;4990617;28;20520;-81
2021/12/02 10:03:06;;;;;;;23.35;12.82;;;;;;;4.81;61.23;94859.41;5006732;28;19917;-83
2021/12/02 10:05:48;;;;;;;20.38;12.98;;;;;;;4.88;61.07;94858.78;4989737;28;20091;-81
2021/12/02 10:08:32;;;;;;;22.33;12.95;;;;;;;4.99;60.23;94844.41;5006706;28;20038;-81
2021/12/02 10:11:07;;;;;;;26.45;14.05;;;;;;;4.99;60.19;94845.25;5005827;28;20046;-79
2021/12/02 10:13:39;;;;;;;25.70;15.90;;;;;;;5.02;61.03;94842.28;5006742;28;20030;-80
2021/12/02 10:21:32;;;;;;;24.92;13.93;;;;;;;5.41;58.69;94824.19;5006108;28;20533;-79
2021/12/02 10:24:09;;;;;;;21.27;14.25;;;;;;;5.42;59.70;94816.03;5005556;28;20057;-80
2021/12/02 10:27:09;;;;;;;28.50;16.10;;;;;;;5.42;60.88;94815.19;5005917;28;20026;-81
2021/12/02 10:29:35;;;;;;;30.90;19.63;;;;;;;5.40;60.01;94817.19;4984731;28;20040;-81
2021/12/02 10:32:18;;;;;;;33.92;19.95;;;;;;;5.46;60.52;94816.56;4989121;28;20102;-81
2021/12/02 10:34:48;;;;;;;;;;;;;;;5.59;60.47;94818.75;5007305;28;20061;-80
2021/12/02 10:37:13;;;;;;;28.98;18.33;;;;;;;5.60;60.52;94806.28;5005589;28;19964;-81
2021/12/02 10:39:39;;;;;;;27.80;18.67;;;;;;;5.66;61.08;94806.47;5005278;28;20029;-81
2021/12/02 10:42:08;;;;;;;27.23;18.35;;;;;;;5.73;61.72;94798.69;5005850;28;20579;-81
2021/12/02 10:44:35;;;;;;;27.95;18.00;;;;;;;5.75;60.24;94790.53;5006230;28;20037;-81
2021/12/02 10:47:14;;;;;;;28.75;17.23;;;;;;;5.97;59.02;94796.22;4989416;28;20481;-80
2021/12/02 10:49:48;;;;;;;24.98;16.17;;;;;;;5.98;58.68;94793.38;4988306;28;20133;-81
2021/12/02 10:52:40;;;;;;;22.40;13.82;;;;;;;6.11;57.89;94792.94;4973452;28;20036;-80
2021/12/02 10:55:11;;;;;;;23.50;14.07;;;;;;;6.06;58.77;94787.31;5005729;28;20081;-81
2021/12/02 10:57:39;;;;;;;26.00;16.10;;;;;;;6.20;58.22;94777.81;4988750;28;20033;-82
2021/12/02 11:00:15;;;;;;;27.73;17.10;;;;;;;6.27;58.13;94759.34;5005631;28;20066;-83
2021/12/02 11:02:48;;;;;;;22.77;15.60;;;;;;;6.49;57.47;94765.81;5004930;28;20034;-82
2021/12/02 11:05:28;;;;;;;21.88;15.18;;;;;;;6.46;58.15;94760.00;5006627;28;20057;-82
2021/12/02 11:07:57;;;;;;;29.05;15.68;;;;;;;6.55;55.17;94750.97;4991003;28;20030;-81
2021/12/02 11:10:24;;;;;;;25.10;15.10;;;;;;;6.59;56.65;94751.47;5004844;28;20030;-81
2021/12/02 11:12:51;;;;;;;23.02;14.75;;;;;;;6.68;56.13;94742.47;4973168;28;20022;-85
2021/12/02 11:15:24;;;;;;;29.25;16.50;;;;;;;6.76;56.31;94745.13;5004905;28;20054;-80
2021/12/02 11:18:16;;;;;;;;;;;;;;;6.81;55.71;94739.28;5005393;28;20428;-80
2021/12/02 11:20:50;;;;;;;28.52;15.02;;;;;;;6.87;55.78;94737.75;5003331;28;19920;-80
2021/12/02 11:23:21;;;;;;;23.58;14.30;;;;;;;6.90;55.71;94738.25;5005214;28;20053;-81
2021/12/02 11:25:57;;;;;;;24.63;13.60;;;;;;;6.90;55.31;94729.44;5006515;28;20049;-80
2021/12/02 11:28:24;;;;;;;23.40;14.18;;;;;;;7.00;55.55;94734.53;5004810;28;20034;-79
2021/12/02 11:30:50;;;;;;;20.98;14.07;;;;;;;6.98;54.55;94739.25;5005031;28;20022;-79
2021/12/02 11:33:19;;;;;;;23.52;13.85;;;;;;;7.08;55.57;94731.03;5005067;28;20084;-79
2021/12/02 11:35:45;;;;;;;23.88;13.45;;;;;;;7.16;56.11;94731.81;4989102;28;20042;-81
2021/12/02 11:38:19;;;;;;;21.08;14.38;;;;;;;7.17;56.21;94724.66;4991608;28;20022;-81
2021/12/02 11:40:49;;;;;;;25.00;14.98;;;;;;;7.26;54.96;94712.94;5008194;28;20036;-81
2021/12/02 11:43:20;;;;;;;21.58;12.48;;;;;;;7.36;55.00;94715.41;5009480;28;20109;-79
2021/12/02 11:45:47;;;;;;;20.33;12.02;;;;;;;7.46;55.20;94717.84;5008569;28;20104;-81
2021/12/02 11:48:20;;;;;;;18.38;11.63;;;;;;;7.44;55.77;94708.34;4995071;28;20068;-80